Time;durP1;ratioP1;P1;durP2;ratioP2;P2;SDS_P1;SDS_P2;PMS_P1;PMS_P2;Temp;Humidity;BMP_temperature;BMP_pressure;BME280_temperature;BME280_humidity;BME280_pressure;Samples;Min_cycle;Max_cycle;Signal;HPM_P1;HPM_P2
2022/12/22 03:27:23;;;;;;;;;;;;;;;3.53;92.84;101315.66;1818709;77;22071;-84
2022/12/22 03:29:49;;;;;;;7.08;5.00;;;;;;;3.42;92.90;101312.38;1815561;77;21194;-84
2022/12/22 03:32:16;;;;;;;12.28;6.37;;;;;;;3.31;93.18;101312.61;1821618;77;20913;-85
2022/12/22 03:34:42;;;;;;;6.10;4.50;;;;;;;3.24;93.42;101313.59;1811235;77;20979;-86
2022/12/22 03:37:09;;;;;;;11.43;6.87;;;;;;;3.19;93.81;101318.46;1802241;77;21093;-86
2022/12/22 03:39:35;;;;;;;6.72;5.55;;;;;;;3.18;94.09;101321.91;1816685;77;20994;-86
2022/12/22 03:47:32;;;;;;;9.08;6.33;;;;;;;3.22;94.19;101317.94;1821382;77;20987;-85
2022/12/22 03:49:59;;;;;;;7.95;5.53;;;;;;;3.27;94.04;101317.44;1808935;77;21046;-85
2022/12/22 03:52:25;;;;;;;7.42;5.87;;;;;;;3.28;94.12;101313.95;1823544;77;21435;-84
2022/12/22 03:54:52;;;;;;;9.43;6.20;;;;;;;3.33;94.52;101313.86;1812857;77;21118;-85
2022/12/22 03:57:18;;;;;;;8.03;5.72;;;;;;;3.38;94.46;101309.47;1807104;77;21450;-83
2022/12/22 03:59:45;;;;;;;8.33;5.67;;;;;;;3.41;94.33;101304.20;1812280;77;20907;-84
2022/12/22 04:02:11;;;;;;;8.03;6.22;;;;;;;3.44;94.25;101300.25;1830315;77;21153;-86
2022/12/22 04:04:38;;;;;;;7.85;6.08;;;;;;;3.44;93.85;101304.14;1804406;77;20983;-88
2022/12/22 04:07:04;;;;;;;7.67;5.20;;;;;;;3.45;93.57;101313.64;1816464;77;21069;-85
2022/12/22 04:09:31;;;;;;;8.03;5.40;;;;;;;3.44;93.39;101307.18;1806624;78;21085;-86
2022/12/22 04:14:43;;;;;;;7.75;4.87;;;;;;;3.41;93.48;101301.62;1817254;77;21061;-87
2022/12/22 04:17:10;;;;;;;9.53;5.97;;;;;;;3.42;93.65;101303.31;1814100;77;21078;-86
2022/12/22 04:19:37;;;;;;;7.95;5.75;;;;;;;3.41;93.60;101311.98;1831121;77;21074;-85
2022/12/22 04:22:04;;;;;;;9.93;6.40;;;;;;;3.39;93.48;101301.23;1821900;77;21518;-87
2022/12/22 04:24:30;;;;;;;7.78;6.00;;;;;;;3.36;93.34;101309.05;1813961;77;21532;-88
2022/12/22 04:26:57;;;;;;;8.73;6.37;;;;;;;3.32;93.27;101309.13;1814420;77;20945;-86
2022/12/22 04:29:23;;;;;;;7.90;5.78;;;;;;;3.29;93.40;101309.61;1822723;77;20971;-85
2022/12/22 04:31:50;;;;;;;9.70;6.03;;;;;;;3.24;93.60;101309.70;1829357;77;21803;-86
2022/12/22 04:34:18;;;;;;;6.90;5.65;;;;;;;3.20;93.93;101307.20;1818586;77;20847;-84
2022/12/22 04:36:45;;;;;;;8.03;5.85;;;;;;;3.17;94.23;101312.45;1819321;77;21271;-85
2022/12/22 04:39:11;;;;;;;10.90;6.40;;;;;;;3.17;94.51;101310.70;1823246;77;20984;-85
2022/12/22 04:41:37;;;;;;;10.90;6.42;;;;;;;3.16;94.54;101312.89;1822430;77;21528;-85
2022/12/22 04:44:05;;;;;;;7.40;5.58;;;;;;;3.16;94.61;101309.42;1818840;77;21897;-86
2022/12/22 04:46:32;;;;;;;6.55;5.15;;;;;;;3.17;94.75;101310.70;1832674;77;21643;-84
2022/12/22 04:48:58;;;;;;;9.18;6.40;;;;;;;3.21;94.78;101308.47;1813165;77;20891;-84
2022/12/22 04:51:25;;;;;;;8.48;5.55;;;;;;;3.24;94.94;101306.27;1807488;77;20987;-84
2022/12/22 04:53:51;;;;;;;7.87;5.25;;;;;;;3.26;95.05;101304.05;1815336;77;21026;-85
2022/12/22 04:56:18;;;;;;;8.30;4.97;;;;;;;3.29;95.15;101305.30;1807446;77;21114;-82
2022/12/22 04:58:44;;;;;;;6.95;5.17;;;;;;;3.32;95.22;101302.64;1812437;77;20983;-83
2022/12/22 05:01:14;;;;;;;7.95;5.45;;;;;;;3.38;95.12;101309.47;1808300;77;20904;-85
2022/12/22 05:03:40;;;;;;;5.72;5.03;;;;;;;3.42;94.91;101294.23;1812617;77;20974;-86
2022/12/22 05:06:07;;;;;;;6.40;4.97;;;;;;;3.47;94.65;101304.09;1814016;77;21353;-84
2022/12/22 05:08:34;;;;;;;8.30;5.45;;;;;;;3.49;94.43;101302.33;1805974;77;21103;-85
2022/12/22 05:11:01;;;;;;;6.08;4.35;;;;;;;3.51;94.51;101308.76;1805965;77;20967;-84
2022/12/22 05:13:30;;;;;;;5.75;4.60;;;;;;;3.52;94.63;101308.73;1816365;77;20983;-84
2022/12/22 05:16:09;;;;;;;8.63;4.70;;;;;;;3.56;94.67;101302.19;1823693;77;20975;-83
2022/12/22 05:18:37;;;;;;;9.28;6.58;;;;;;;3.58;94.46;101303.02;1819228;77;20899;-83
2022/12/22 05:21:09;;;;;;;8.03;5.60;;;;;;;3.56;94.25;101315.15;1805794;78;21210;-83
2022/12/22 05:23:35;;;;;;;6.08;5.03;;;;;;;3.55;94.14;101319.94;1785257;78;20991;-85
2022/12/22 05:26:02;;;;;;;10.63;5.72;;;;;;;3.56;93.95;101320.34;1812811;77;21521;-84
2022/12/22 05:28:31;;;;;;;7.25;5.03;;;;;;;3.56;94.12;101325.11;1814451;77;20955;-86
2022/12/22 05:31:09;;;;;;;13.50;8.38;;;;;;;3.57;94.42;101330.69;1811139;77;20990;-83
2022/12/22 05:33:35;;;;;;;11.85;8.58;;;;;;;3.61;94.59;101337.53;1805941;77;21146;-83
2022/12/22 05:36:03;;;;;;;11.75;7.60;;;;;;;3.66;94.44;101334.84;1818587;77;21038;-86
2022/12/22 05:38:29;;;;;;;14.43;9.70;;;;;;;3.68;94.16;101339.11;1811259;77;21099;-86
2022/12/22 05:40:57;;;;;;;16.20;9.28;;;;;;;3.71;93.74;101344.26;1812619;77;20966;-84
2022/12/22 05:43:23;;;;;;;12.78;8.80;;;;;;;3.73;93.54;101353.28;1814624;77;20965;-85
2022/12/22 05:45:52;;;;;;;7.30;5.65;;;;;;;3.72;93.49;101352.89;1819748;77;21732;-83
2022/12/22 05:48:18;;;;;;;7.40;5.42;;;;;;;3.74;93.66;101361.50;1815751;77;21025;-85
2022/12/22 05:50:45;;;;;;;9.43;6.92;;;;;;;3.74;93.28;101368.83;1819567;77;20920;-85
2022/12/22 05:53:13;;;;;;;6.50;5.15;;;;;;;3.74;93.30;101368.83;1814340;77;20892;-86
2022/12/22 05:55:41;;;;;;;5.75;4.80;;;;;;;3.77;93.05;101375.69;1819214;77;20903;-86
2022/12/22 05:58:07;;;;;;;9.58;6.60;;;;;;;3.77;92.36;101380.03;1815688;77;21148;-84
2022/12/22 06:00:34;;;;;;;8.35;5.33;;;;;;;3.74;92.17;101386.14;1822571;77;20849;-87
2022/12/22 06:03:01;;;;;;;5.58;4.62;;;;;;;3.72;92.03;101386.16;1826465;77;21512;-85
2022/12/22 06:05:27;;;;;;;6.87;5.15;;;;;;;3.69;91.96;101387.53;1821090;77;20900;-85
2022/12/22 06:07:54;;;;;;;5.80;4.53;;;;;;;3.66;91.73;101394.05;1806936;77;20947;-84
2022/12/22 06:10:21;;;;;;;6.08;4.10;;;;;;;3.61;91.44;101392.44;1823029;77;21305;-83
2022/12/22 06:12:48;;;;;;;6.72;4.20;;;;;;;3.54;91.31;101391.70;1813546;77;20991;-84
2022/12/22 06:15:14;;;;;;;6.55;4.33;;;;;;;3.46;91.17;101384.50;1830992;77;20975;-86
2022/12/22 06:17:42;;;;;;;4.80;3.75;;;;;;;3.41;91.33;101385.03;1827272;77;21721;-86
2022/12/22 06:20:09;;;;;;;5.42;4.10;;;;;;;3.34;91.62;101386.03;1832447;77;21018;-87
2022/12/22 06:22:36;;;;;;;4.95;3.95;;;;;;;3.30;92.15;101380.03;1824794;77;21280;-85
2022/12/22 06:25:02;;;;;;;6.53;4.83;;;;;;;3.31;92.57;101378.72;1812628;77;20879;-86
2022/12/22 06:27:30;;;;;;;4.67;3.75;;;;;;;3.34;92.73;101377.80;1813562;77;20959;-84
2022/12/22 06:29:56;;;;;;;6.95;4.47;;;;;;;3.38;92.88;101372.09;1814551;77;20931;-86
2022/12/22 06:32:25;;;;;;;5.33;3.87;;;;;;;3.42;92.82;101381.09;1821360;77;20871;-83
2022/12/22 06:34:53;;;;;;;6.17;4.03;;;;;;;3.50;92.81;101372.73;1812963;77;21233;-86
2022/12/22 06:37:20;;;;;;;3.50;3.02;;;;;;;3.56;92.79;101369.61;1814092;77;21041;-85
2022/12/22 06:39:47;;;;;;;6.70;4.12;;;;;;;3.57;92.56;101372.63;1820513;77;20979;-85
2022/12/22 06:45:06;;;;;;;22.65;15.63;;;;;;;3.63;92.72;101375.12;1824948;77;21107;-87
2022/12/22 06:47:34;;;;;;;12.95;8.35;;;;;;;3.67;92.60;101367.25;1797791;77;20967;-88
2022/12/22 06:50:01;;;;;;;13.45;6.80;;;;;;;3.70;92.28;101372.81;1824151;77;20880;-86
2022/12/22 06:52:28;;;;;;;5.95;4.45;;;;;;;3.71;92.08;101372.80;1822989;77;20876;-88
2022/12/22 06:54:56;;;;;;;7.85;5.87;;;;;;;3.74;91.97;101375.77;1810306;77;21757;-86
2022/12/22 06:57:23;;;;;;;8.65;6.28;;;;;;;3.75;92.01;101367.08;1813885;77;21456;-87
2022/12/22 06:59:50;;;;;;;8.85;7.28;;;;;;;3.81;92.25;101374.75;1829799;77;21133;-86
2022/12/22 07:02:18;;;;;;;13.08;8.13;;;;;;;3.87;92.08;101373.79;1817252;77;20975;-86
2022/12/22 07:04:44;;;;;;;6.87;5.67;;;;;;;3.94;91.90;101372.77;1807690;77;20876;-88
2022/12/22 07:07:13;;;;;;;7.70;5.62;;;;;;;3.99;91.49;101364.89;1824443;77;20931;-85
2022/12/22 07:09:39;;;;;;;8.00;5.55;;;;;;;4.03;91.29;101382.11;1819273;77;20904;-86
2022/12/22 07:12:06;;;;;;;7.20;5.50;;;;;;;4.06;91.05;101381.59;1816293;77;21164;-89
2022/12/22 07:14:33;;;;;;;6.87;5.87;;;;;;;4.06;90.67;101378.99;1817381;77;21018;-87
2022/12/22 11:39:15;;;;;;;19.30;10.10;;;;;;;5.97;84.28;101229.39;1684760;84;21007;-87
2022/12/22 11:42:08;;;;;;;11.08;7.00;;;;;;;5.93;84.31;101229.51;1681999;84;21015;-88
2022/12/22 11:45:05;;;;;;;10.75;6.70;;;;;;;5.93;84.18;101225.61;1683306;84;21231;-86
2022/12/22 11:47:52;;;;;;;10.45;6.60;;;;;;;5.90;84.18;101228.31;1679834;84;21132;-88
2022/12/22 11:50:44;;;;;;;9.95;6.75;;;;;;;5.86;84.44;101229.30;1686429;84;21666;-86
2022/12/22 11:53:48;;;;;;;10.08;7.62;;;;;;;5.83;84.72;101221.59;1683020;83;21125;-87
2022/12/22 11:56:28;;;;;;;10.10;6.90;;;;;;;5.82;84.97;101215.52;1677414;84;20876;-87
2022/12/22 11:59:21;;;;;;;10.48;7.47;;;;;;;5.85;84.94;101212.84;1687924;84;21878;-86
2022/12/22 12:02:21;;;;;;;11.50;7.65;;;;;;;5.83;84.96;101213.33;1624768;87;21615;-86
2022/12/22 12:05:34;;;;;;;12.45;7.47;;;;;;;5.80;84.97;101209.08;1621862;87;21481;-85
2022/12/22 12:08:40;;;;;;;12.55;8.93;;;;;;;5.82;84.91;101205.11;1620026;87;21059;-87
2022/12/22 12:11:24;;;;;;;20.10;14.33;;;;;;;5.79;84.98;101202.16;1662272;85;21129;-86
2022/12/22 12:14:16;;;;;;;12.80;9.80;;;;;;;5.81;85.20;101198.21;1656040;86;21838;-86
2022/12/22 12:17:03;;;;;;;11.57;8.30;;;;;;;5.84;85.44;101200.70;1659284;86;21078;-87
2022/12/22 12:19:51;;;;;;;24.05;15.35;;;;;;;5.89;85.31;101196.23;1662043;85;20982;-88
2022/12/22 12:22:42;;;;;;;24.95;16.85;;;;;;;5.91;84.95;101195.70;1662741;85;20982;-85
2022/12/22 12:25:17;;;;;;;21.25;15.25;;;;;;;5.89;84.84;101189.73;1663205;85;21019;-85
2022/12/22 12:28:16;;;;;;;17.95;12.00;;;;;;;5.88;84.86;101191.06;1663433;85;21167;-88
2022/12/22 12:30:51;;;;;;;21.55;14.23;;;;;;;5.86;84.74;101200.22;1654417;85;21569;-87
2022/12/22 12:33:50;;;;;;;9.78;7.08;;;;;;;5.85;84.74;101201.55;1671563;84;21326;-85
2022/12/22 12:36:57;;;;;;;10.63;6.53;;;;;;;5.84;84.81;101202.47;1645007;85;20974;-86
2022/12/22 12:40:03;;;;;;;10.23;6.92;;;;;;;5.80;84.90;101201.27;1663789;85;21015;-85
2022/12/22 12:42:39;;;;;;;9.33;6.17;;;;;;;5.81;84.95;101204.27;1658942;85;21289;-84
2022/12/22 12:45:40;;;;;;;11.78;6.78;;;;;;;5.86;84.84;101205.88;1666692;84;21005;-83
2022/12/22 12:48:28;;;;;;;14.00;8.98;;;;;;;5.86;84.60;101201.97;1667050;85;20995;-85
2022/12/22 12:50:56;;;;;;;17.23;10.18;;;;;;;5.84;84.54;101205.07;1680256;84;21018;-86
2022/12/22 12:53:27;;;;;;;41.20;23.80;;;;;;;5.85;84.43;101210.66;1664781;85;21484;-85
2022/12/22 12:55:58;;;;;;;18.82;11.38;;;;;;;5.85;84.55;101205.45;1676566;83;21231;-86
2022/12/22 12:58:41;;;;;;;19.62;11.97;;;;;;;5.85;84.59;101207.63;1684855;83;21418;-86
2022/12/22 13:01:28;;;;;;;20.92;10.65;;;;;;;5.88;84.76;101200.17;1663905;85;21054;-86
2022/12/22 13:03:54;;;;;;;16.12;9.60;;;;;;;5.91;84.92;101201.37;1680683;84;21463;-86
2022/12/22 13:10:08;;;;;;;15.43;10.45;;;;;;;5.98;84.42;101208.11;1680841;84;21596;-86
2022/12/22 13:12:50;;;;;;;12.63;7.05;;;;;;;6.00;84.34;101212.83;1678239;84;21056;-88
2022/12/22 13:15:43;;;;;;;15.05;9.25;;;;;;;6.00;84.17;101206.31;1666774;84;21049;-86
2022/12/22 13:18:27;;;;;;;15.93;11.15;;;;;;;6.01;83.94;101210.64;1676058;84;21610;-86
2022/12/22 13:21:00;;;;;;;11.60;6.80;;;;;;;5.98;83.90;101212.02;1639316;85;21027;-87
2022/12/22 13:23:29;;;;;;;15.03;6.67;;;;;;;5.98;84.13;101210.72;1686362;84;21461;-87
2022/12/22 13:25:58;;;;;;;7.55;6.70;;;;;;;5.99;84.27;101214.58;1665473;85;21018;-85
2022/12/22 13:28:25;;;;;;;10.80;6.85;;;;;;;6.01;84.27;101210.64;1674575;84;21010;-84
2022/12/22 13:31:15;;;;;;;8.65;6.10;;;;;;;6.02;84.18;101208.42;1672535;84;20987;-87
2022/12/22 13:33:43;;;;;;;17.87;11.48;;;;;;;6.01;83.96;101209.34;1684399;84;20893;-87
2022/12/22 13:36:18;;;;;;;29.23;19.73;;;;;;;5.94;83.84;101206.08;1672127;83;21919;-87
2022/12/22 13:38:44;;;;;;;;;;;;;;;5.86;83.98;101203.27;1676145;84;21137;-85
2022/12/22 13:41:18;;;;;;;9.80;7.87;;;;;;;5.80;84.25;101203.00;1670824;83;20211;-87
2022/12/22 13:43:50;;;;;;;21.50;11.85;;;;;;;5.72;84.58;101194.14;1668815;84;21030;-86
2022/12/22 13:46:17;;;;;;;20.05;12.53;;;;;;;5.66;85.03;101194.78;1664904;83;20931;-87
2022/12/22 13:48:48;;;;;;;17.90;10.08;;;;;;;5.59;85.37;101188.45;1681001;84;21280;-86
2022/12/22 13:51:27;;;;;;;37.38;17.77;;;;;;;5.55;85.59;101188.13;1666922;85;21109;-85
2022/12/22 13:54:00;;;;;;;19.50;12.53;;;;;;;5.50;85.83;101186.59;1682463;83;21005;-87
2022/12/22 13:56:37;;;;;;;11.48;9.08;;;;;;;5.47;85.97;101187.53;1674538;83;21013;-87
2022/12/22 13:59:04;;;;;;;25.90;13.22;;;;;;;5.47;86.21;101199.66;1665786;85;20983;-86
2022/12/22 14:01:31;;;;;;;11.88;7.53;;;;;;;5.43;86.51;101192.87;1669604;83;21869;-88
2022/12/22 14:07:29;;;;;;;12.85;8.40;;;;;;;5.39;86.91;101191.64;1651849;85;21061;-88
2022/12/22 14:09:56;;;;;;;12.82;8.88;;;;;;;5.38;86.94;101191.67;1641417;87;21164;-89
2022/12/22 14:12:33;;;;;;;11.22;6.87;;;;;;;5.35;86.98;101191.32;1605017;87;20968;-89
2022/12/22 14:15:03;;;;;;;12.88;7.87;;;;;;;5.37;87.02;101192.13;1663665;85;21096;-88
2022/12/22 14:17:36;;;;;;;16.02;9.33;;;;;;;5.37;87.08;101185.63;1629200;86;20892;-86
2022/12/22 14:20:21;;;;;;;15.20;11.10;;;;;;;5.38;87.17;101179.55;1664772;85;21191;-87
2022/12/22 14:22:53;;;;;;;18.62;9.60;;;;;;;5.38;87.25;101182.58;1638850;87;20975;-87
2022/12/22 14:25:29;;;;;;;7.83;5.35;;;;;;;5.39;87.32;101185.14;1654244;85;21009;-85
2022/12/22 14:27:57;;;;;;;11.45;6.53;;;;;;;5.40;87.22;101183.38;1645600;87;21232;-87
2022/12/22 14:30:28;;;;;;;11.08;7.75;;;;;;;5.40;87.14;101182.96;1662926;85;20910;-86
2022/12/22 14:33:00;;;;;;;8.93;5.78;;;;;;;5.40;87.08;101172.98;1661868;85;21001;-88
2022/12/22 14:35:29;;;;;;;12.03;7.30;;;;;;;5.40;87.07;101171.26;1631747;87;21593;-88
2022/12/22 14:38:21;;;;;;;13.05;7.37;;;;;;;5.42;87.15;101172.95;1653230;86;21006;-89
2022/12/22 14:40:48;;;;;;;12.47;7.75;;;;;;;5.43;87.19;101170.77;1664554;85;21153;-86
2022/12/22 14:43:23;;;;;;;10.60;7.05;;;;;;;5.43;87.21;101166.86;1640345;86;21036;-86
2022/12/22 14:45:50;;;;;;;9.98;6.25;;;;;;;5.43;87.09;101166.86;1643777;86;20935;-88
2022/12/22 14:48:43;;;;;;;10.43;6.60;;;;;;;5.43;87.08;101170.31;1643569;87;20979;-85
2022/12/22 14:51:10;;;;;;;8.63;6.30;;;;;;;5.46;87.00;101166.76;1547724;90;21113;-86
2022/12/22 14:53:45;;;;;;;9.05;6.08;;;;;;;5.46;86.95;101166.30;1567859;90;22343;-85
2022/12/22 14:56:13;;;;;;;11.43;6.53;;;;;;;5.47;87.04;101165.84;1589313;89;21000;-87
2022/12/22 14:58:45;;;;;;;13.60;7.17;;;;;;;5.48;87.17;101164.97;1562643;89;21094;-86
2022/12/22 15:01:49;;;;;;;16.55;7.60;;;;;;;5.49;87.11;101162.75;1566703;90;21197;-86
2022/12/22 15:05:00;;;;;;;10.88;6.30;;;;;;;5.48;87.03;101159.77;1489268;94;21028;-88
2022/12/22 15:07:45;;;;;;;9.50;7.35;;;;;;;5.48;86.92;101163.66;1428071;98;21166;-87
2022/12/22 15:10:15;;;;;;;13.40;8.00;;;;;;;5.47;86.85;101159.34;1424573;98;21041;-88
2022/12/22 15:12:45;;;;;;;6.17;5.58;;;;;;;5.46;86.94;101162.86;1423975;99;21076;-85
2022/12/22 15:15:25;;;;;;;11.65;6.08;;;;;;;5.46;87.07;101156.36;1391940;102;21137;-89
2022/12/22 15:18:05;;;;;;;11.15;6.55;;;;;;;5.45;87.23;101158.11;1374115;102;21026;-88
2022/12/22 15:20:33;;;;;;;8.53;5.72;;;;;;;5.47;87.40;101152.84;1364064;104;21224;-86
2022/12/22 15:23:30;;;;;;;18.00;11.85;;;;;;;5.49;87.32;101162.33;1369100;101;21228;-88
2022/12/22 15:26:16;;;;;;;34.38;23.60;;;;;;;5.48;87.26;101164.51;1362569;102;21143;-87
2022/12/22 15:28:49;;;;;;;15.75;10.30;;;;;;;5.49;87.19;101165.36;1379493;101;21141;-86
2022/12/22 15:32:09;;;;;;;10.78;8.55;;;;;;;5.51;87.22;101163.56;1396381;101;21258;-85
2022/12/22 15:34:17;;;;;;;21.70;13.43;;;;;;;5.52;87.27;101158.78;1401292;99;21501;-87
2022/12/22 15:36:49;;;;;;;13.88;8.55;;;;;;;5.53;87.30;101153.96;1395379;100;21206;-87
2022/12/22 15:39:17;;;;;;;14.35;7.60;;;;;;;5.55;87.25;101161.27;1389020;101;21055;-88
2022/12/22 15:41:44;;;;;;;15.43;9.88;;;;;;;5.55;87.11;101153.47;1414219;99;21056;-88
2022/12/22 15:44:30;;;;;;;9.40;7.17;;;;;;;5.55;86.97;101158.22;1472693;94;21076;-86
2022/12/22 15:47:03;;;;;;;14.23;9.45;;;;;;;5.55;86.90;101166.02;1479143;95;21233;-85
2022/12/22 15:49:34;;;;;;;12.10;7.92;;;;;;;5.56;86.81;101169.05;1553570;90;23783;-89
2022/12/22 15:52:01;;;;;;;14.43;7.10;;;;;;;5.57;86.91;101166.83;1561173;88;21132;-86
2022/12/22 15:54:31;;;;;;;16.70;10.35;;;;;;;5.58;86.99;101176.78;1546552;91;21230;-87
2022/12/22 15:57:03;;;;;;;29.00;20.95;;;;;;;5.61;87.13;101174.10;1555371;90;21094;-85
2022/12/22 15:59:30;;;;;;;13.78;7.53;;;;;;;5.65;86.94;101174.42;1543366;90;21281;-87
2022/12/22 16:02:01;;;;;;;8.40;6.62;;;;;;;5.66;86.72;101176.56;1504611;93;21138;-87
2022/12/22 16:04:27;;;;;;;15.20;9.65;;;;;;;5.66;86.58;101174.80;1548067;91;21089;-86
2022/12/22 16:06:54;;;;;;;13.65;8.15;;;;;;;5.68;86.40;101174.77;1526105;92;21070;-86
2022/12/22 20:52:51;;;;;;;13.50;7.95;;;;;;;5.29;86.77;101141.24;1767750;80;21014;-84
2022/12/22 20:55:19;;;;;;;12.82;8.73;;;;;;;5.26;86.84;101128.34;1755009;80;21046;-85
2022/12/22 20:57:47;;;;;;;9.38;7.58;;;;;;;5.24;86.95;101135.34;1776167;80;21157;-86
2022/12/22 21:00:26;;;;;;;11.68;7.78;;;;;;;5.25;87.00;101140.95;1752519;80;20877;-87
2022/12/22 21:02:53;;;;;;;12.13;7.85;;;;;;;5.25;86.97;101136.59;1749569;80;20964;-89
2022/12/22 21:05:20;;;;;;;15.40;9.18;;;;;;;5.25;86.82;101132.70;1774320;80;20889;-87
2022/12/22 21:07:48;;;;;;;19.90;11.97;;;;;;;5.23;86.69;101134.48;1755170;80;20887;-85
2022/12/22 21:10:23;;;;;;;17.82;11.80;;;;;;;5.23;86.61;101133.65;1750560;80;21249;-85
2022/12/22 21:12:51;;;;;;;24.05;15.65;;;;;;;5.22;86.56;101132.77;1768544;80;21555;-85
2022/12/22 21:15:24;;;;;;;24.47;15.72;;;;;;;5.21;86.64;101136.28;1751638;80;20983;-85
2022/12/22 21:17:50;;;;;;;21.80;13.65;;;;;;;5.22;86.78;101130.17;1771477;80;21182;-84
2022/12/22 21:20:25;;;;;;;18.02;12.45;;;;;;;5.24;86.73;101125.78;1762231;80;20897;-87
2022/12/22 21:22:54;;;;;;;22.80;14.00;;;;;;;5.26;86.50;101134.39;1764840;80;21520;-86
2022/12/22 21:25:21;;;;;;;13.53;9.03;;;;;;;5.25;86.30;101135.75;1750982;80;21015;-85
2022/12/22 21:27:49;;;;;;;16.12;11.50;;;;;;;5.23;86.14;101137.55;1741229;80;20959;-84
2022/12/22 21:30:22;;;;;;;17.12;10.35;;;;;;;5.22;86.11;101131.92;1750805;80;20890;-84
2022/12/22 21:32:49;;;;;;;13.05;9.73;;;;;;;5.21;86.16;101125.03;1757767;80;21377;-86
2022/12/22 21:35:26;;;;;;;12.58;9.25;;;;;;;5.19;86.25;101134.17;1758354;80;21958;-85
2022/12/22 21:37:57;;;;;;;12.03;8.70;;;;;;;5.16;86.23;101127.32;1754567;80;21990;-85
2022/12/22 21:40:27;;;;;;;16.05;10.13;;;;;;;5.15;86.18;101123.00;1731945;81;21007;-85
2022/12/22 21:42:56;;;;;;;15.80;9.85;;;;;;;5.12;86.15;101120.95;1757499;80;20983;-84
2022/12/22 21:45:29;;;;;;;12.93;9.05;;;;;;;5.12;86.12;101125.70;1760018;80;20975;-83
2022/12/22 21:47:59;;;;;;;10.48;9.08;;;;;;;5.10;86.03;101122.29;1740266;80;21236;-83
2022/12/22 21:50:32;;;;;;;15.90;9.98;;;;;;;5.08;86.17;101119.34;1740450;80;20903;-84
2022/12/22 21:53:00;;;;;;;15.28;10.80;;;;;;;5.06;86.28;101127.63;1771794;80;21050;-86
2022/12/22 21:55:30;;;;;;;12.75;8.53;;;;;;;5.05;86.30;101124.64;1763903;80;20948;-84
2022/12/22 21:57:57;;;;;;;14.43;9.88;;;;;;;5.04;86.26;101123.77;1774193;80;20972;-84
2022/12/22 22:00:25;;;;;;;16.02;10.25;;;;;;;5.04;86.16;101124.22;1767018;80;21126;-84
2022/12/22 22:02:52;;;;;;;11.43;8.40;;;;;;;5.02;86.11;101122.11;1770670;80;20980;-84
2022/12/22 22:05:24;;;;;;;12.82;9.28;;;;;;;5.00;86.06;101131.23;1763462;80;20893;-84
2022/12/22 22:07:51;;;;;;;14.40;9.28;;;;;;;4.98;86.01;101126.56;1746415;80;21432;-85
2022/12/22 22:10:21;;;;;;;11.70;8.73;;;;;;;4.98;86.08;101130.01;1767793;80;21099;-83
2022/12/22 22:12:48;;;;;;;14.03;8.98;;;;;;;4.97;86.15;101128.28;1757258;80;21245;-84
2022/12/22 22:15:14;;;;;;;11.60;9.00;;;;;;;4.97;86.19;101124.84;1757869;80;21003;-84
2022/12/22 22:17:41;;;;;;;12.80;9.13;;;;;;;4.99;86.12;101122.59;1756435;80;20896;-84
2022/12/22 22:20:18;;;;;;;13.08;10.00;;;;;;;5.00;85.90;101119.55;1745132;80;21345;-83
2022/12/22 22:22:45;;;;;;;11.28;8.15;;;;;;;4.96;85.72;101123.16;1768745;80;20991;-84
2022/12/22 22:25:13;;;;;;;12.73;8.45;;;;;;;4.96;85.66;101114.06;1777268;80;21991;-84
2022/12/22 22:27:40;;;;;;;14.25;8.40;;;;;;;4.96;85.60;101118.80;1773154;80;21098;-84
2022/12/22 22:37:02;;;;;;;13.53;9.25;;;;;;;4.91;85.89;101112.02;1762650;80;20884;-84
2022/12/22 22:39:29;;;;;;;12.35;9.15;;;;;;;4.93;85.81;101121.92;1763394;80;21253;-84
2022/12/22 22:41:56;;;;;;;11.85;9.03;;;;;;;4.92;85.55;101115.88;1774115;80;20944;-85
2022/12/22 22:44:23;;;;;;;11.63;9.25;;;;;;;4.88;85.41;101110.81;1744991;80;20900;-85
2022/12/22 22:46:50;;;;;;;12.47;9.03;;;;;;;4.85;85.43;101105.27;1765807;80;20982;-84
2022/12/22 22:49:16;;;;;;;13.32;9.55;;;;;;;4.83;85.65;101108.34;1745241;80;21027;-86
2022/12/22 22:51:43;;;;;;;14.93;9.33;;;;;;;4.83;85.86;101105.75;1751424;80;21150;-84
2022/12/22 22:54:11;;;;;;;15.40;9.78;;;;;;;4.84;85.82;101102.24;1761877;80;21004;-85
2022/12/22 22:56:38;;;;;;;14.63;9.20;;;;;;;4.85;85.77;101105.27;1771046;81;21114;-84
2022/12/22 22:59:05;;;;;;;11.22;8.48;;;;;;;4.87;85.67;101100.88;1773561;80;20997;-86
2022/12/22 23:01:31;;;;;;;14.33;10.28;;;;;;;4.86;85.47;101099.16;1760874;80;21058;-84
2022/12/22 23:03:58;;;;;;;11.97;8.80;;;;;;;4.83;85.34;101094.52;1748978;80;21256;-85
2022/12/22 23:06:25;;;;;;;12.73;9.23;;;;;;;4.81;85.39;101091.95;1744281;80;21046;-83
2022/12/22 23:08:53;;;;;;;15.23;10.30;;;;;;;4.77;85.53;101096.37;1759256;80;20999;-85
2022/12/22 23:11:19;;;;;;;12.03;8.68;;;;;;;4.75;85.77;101096.02;1746409;80;20999;-85
2022/12/22 23:13:46;;;;;;;14.45;9.63;;;;;;;4.75;85.89;101086.92;1766099;80;20975;-85
2022/12/22 23:16:14;;;;;;;15.10;10.08;;;;;;;4.74;85.84;101088.67;1751038;80;21354;-85
2022/12/22 23:18:41;;;;;;;14.07;9.90;;;;;;;4.73;85.78;101084.35;1766943;80;20881;-84
2022/12/22 23:21:08;;;;;;;12.88;9.60;;;;;;;4.74;85.86;101087.83;1744505;81;20939;-84
2022/12/22 23:23:36;;;;;;;11.95;9.85;;;;;;;4.74;85.66;101090.42;1763275;80;20932;-83
2022/12/22 23:26:02;;;;;;;11.08;8.63;;;;;;;4.75;85.67;101088.22;1729573;81;20951;-82
2022/12/22 23:28:29;;;;;;;13.45;9.18;;;;;;;4.75;85.79;101085.62;1769878;80;21112;-84
2022/12/22 23:30:56;;;;;;;12.60;9.20;;;;;;;4.75;85.88;101089.52;1756370;80;20920;-83
2022/12/22 23:33:23;;;;;;;12.03;9.28;;;;;;;4.74;85.98;101087.38;1766037;80;20885;-84
2022/12/22 23:35:51;;;;;;;12.20;8.88;;;;;;;4.75;85.87;101090.81;1756844;80;20916;-84
2022/12/22 23:38:19;;;;;;;10.28;8.60;;;;;;;4.73;85.75;101090.84;1744391;80;20920;-84
2022/12/22 23:40:46;;;;;;;12.68;9.45;;;;;;;4.70;85.68;101092.25;1754913;80;21143;-84
2022/12/22 23:43:12;;;;;;;10.95;8.63;;;;;;;4.71;85.67;101089.20;1742771;80;21062;-82
2022/12/22 23:45:39;;;;;;;13.05;8.30;;;;;;;4.71;85.62;101087.47;1760122;80;21465;-83
2022/12/22 23:48:07;;;;;;;11.90;8.20;;;;;;;4.68;85.73;101078.91;1771646;80;21070;-83
2022/12/22 23:50:33;;;;;;;11.63;9.28;;;;;;;4.68;85.87;101084.94;1767587;80;21008;-86
2022/12/22 23:53:00;;;;;;;14.70;9.55;;;;;;;4.70;86.04;101088.80;1761379;80;21847;-85
2022/12/22 23:55:27;;;;;;;12.00;8.90;;;;;;;4.74;85.98;101088.67;1750407;80;21014;-85
2022/12/22 23:57:53;;;;;;;14.65;9.10;;;;;;;4.76;85.81;101082.14;1755757;80;20944;-84
